Time;durP1;ratioP1;P1;durP2;ratioP2;P2;SDS_P1;SDS_P2;PMS_P1;PMS_P2;Temp;Humidity;BMP_temperature;BMP_pressure;BME280_temperature;BME280_humidity;BME280_pressure;Samples;Min_cycle;Max_cycle;Signal;HPM_P1;HPM_P2
2023/11/23 00:02:13;;;;;;;;;;;;;;;9.95;100.00;99745.97;4975701;28;19914;-72
2023/11/23 00:04:38;;;;;;;;;;;;;;;9.92;100.00;99748.56;4975567;28;19956;-72
2023/11/23 00:07:03;;;;;;;;;;;;;;;9.93;100.00;99751.06;4994055;28;19925;-72
2023/11/23 00:09:29;;;;;;;;;;;;;;;9.91;100.00;99761.72;4976371;28;19918;-72
2023/11/23 00:11:54;;;;;;;;;;;;;;;9.91;100.00;99758.94;4975793;28;20005;-72
2023/11/23 00:14:19;;;;;;;;;;;;;;;9.89;100.00;99763.19;4994948;28;19926;-72
2023/11/23 00:16:44;;;;;;;;;;;;;;;9.96;100.00;99771.94;4994900;28;19973;-73
2023/11/23 00:19:10;;;;;;;;;;;;;;;9.96;100.00;99783.94;4993407;28;19924;-73
2023/11/23 00:21:35;;;;;;;;;;;;;;;9.93;100.00;99783.75;4993751;28;19944;-72
2023/11/23 00:24:01;;;;;;;;;;;;;;;9.89;100.00;99772.38;4993448;28;19914;-72
2023/11/23 00:26:26;;;;;;;;;;;;;;;9.88;100.00;99772.72;4992296;28;19944;-73
2023/11/23 00:28:51;;;;;;;;;;;;;;;9.81;100.00;99770.41;4994442;28;19914;-72
2023/11/23 00:31:17;;;;;;;;;;;;;;;9.84;100.00;99772.53;4993402;28;19917;-73
2023/11/23 00:33:42;;;;;;;;;;;;;;;9.84;100.00;99769.75;4994180;28;20364;-72
2023/11/23 00:36:08;;;;;;;;;;;;;;;9.85;100.00;99771.41;4993846;28;19941;-72
2023/11/23 00:38:34;;;;;;;;;;;;;;;9.85;100.00;99771.41;4994502;28;20312;-73
2023/11/23 00:41:00;;;;;;;;;;;;;;;9.91;100.00;99772.91;4993676;28;20406;-73
2023/11/23 00:43:26;;;;;;;;;;;;;;;9.81;100.00;99776.00;4994314;28;19914;-72
2023/11/23 00:45:51;;;;;;;;;;;;;;;9.84;100.00;99778.13;4994253;28;19944;-72
2023/11/23 00:48:16;;;;;;;;;;;;;;;9.81;100.00;99790.75;4992942;28;19925;-72
2023/11/23 00:50:41;;;;;;;;;;;;;;;9.80;100.00;99796.69;4993090;28;19914;-72
2023/11/23 00:53:07;;;;;;;;;;;;;;;9.92;100.00;99794.13;4994083;28;20029;-73
2023/11/23 00:55:32;;;;;;;;;;;;;;;9.86;100.00;99795.38;4992658;28;19945;-73
2023/11/23 00:57:57;;;;;;;;;;;;;;;9.94;100.00;99794.63;4994183;28;19918;-73
2023/11/23 01:00:23;;;;;;;;;;;;;;;9.94;100.00;99808.59;4994014;28;20400;-72
2023/11/23 01:02:50;;;;;;;;;;;;;;;9.93;100.00;99812.53;4994170;28;19956;-72
2023/11/23 01:05:15;;;;;;;;;;;;;;;9.95;100.00;99809.38;4992735;28;19937;-73
2023/11/23 01:07:42;;;;;;;;;;;;;;;9.92;100.00;99805.28;4992088;28;19914;-73
2023/11/23 01:10:07;;;;;;;;;;;;;;;9.93;100.00;99811.69;4991626;28;19924;-73
2023/11/23 01:12:33;;;;;;;;;;;;;;;9.89;100.00;99813.50;4982112;28;19921;-73
2023/11/23 01:14:59;;;;;;;;;;;;;;;9.92;100.00;99818.41;4993835;28;19913;-73
2023/11/23 01:17:24;;;;;;;;;;;;;;;9.83;100.00;99801.63;4992509;28;19917;-73
2023/11/23 01:19:50;;;;;;;;;;;;;;;9.86;100.00;99806.56;4993749;28;19914;-73
2023/11/23 01:22:16;;;;;;;;;;;;;;;9.88;100.00;99812.66;4992898;28;19971;-72
2023/11/23 01:24:41;;;;;;;;;;;;;;;9.81;100.00;99803.94;4993632;28;20381;-73
2023/11/23 01:27:07;;;;;;;;;;;;;;;9.87;100.00;99808.22;4991879;28;19929;-73
2023/11/23 01:29:32;;;;;;;;;;;;;;;9.92;100.00;99804.44;4974145;28;20008;-73
2023/11/23 01:31:57;;;;;;;;;;;;;;;9.95;100.00;99806.59;4974146;28;20004;-72
2023/11/23 01:34:23;;;;;;;;;;;;;;;9.94;100.00;99808.59;4974621;28;20055;-72
2023/11/23 01:36:48;;;;;;;;;;;;;;;9.97;100.00;99810.72;4993516;28;20071;-73
2023/11/23 01:39:14;;;;;;;;;;;;;;;9.94;100.00;99808.59;4993349;28;19914;-73
2023/11/23 01:41:39;;;;;;;;;;;;;;;9.92;100.00;99810.88;4992613;28;20368;-72
2023/11/23 01:44:04;;;;;;;;;;;;;;;9.93;100.00;99818.13;4993164;28;19918;-72
2023/11/23 01:46:30;;;;;;;;;;;;;;;10.05;100.00;99817.50;4993172;28;19922;-73
2023/11/23 01:48:56;;;;;;;;;;;;;;;10.05;100.00;99820.28;4991189;28;19925;-72
2023/11/23 01:51:22;;;;;;;;;;;;;;;9.94;100.00;99828.13;4985149;28;19925;-72
2023/11/23 01:53:47;;;;;;;;;;;;;;;9.93;100.00;99837.66;4973538;28;20393;-73
2023/11/23 01:56:13;;;;;;;;;;;;;;;9.96;100.00;99827.84;4990459;28;20031;-72
2023/11/23 01:58:39;;;;;;;;;;;;;;;10.06;100.00;99829.50;4991778;28;19913;-72
2023/11/23 02:01:04;;;;;;;;;;;;;;;10.09;100.00;99831.66;4992806;28;19937;-72
2023/11/23 02:03:30;;;;;;;;;;;;;;;10.06;100.00;99827.50;4991397;28;20393;-72
2023/11/23 02:05:55;;;;;;;;;;;;;;;10.02;100.00;99831.31;4989957;28;19933;-72
2023/11/23 02:08:21;;;;;;;;;;;;;;;10.06;100.00;99826.72;4980121;28;19925;-73
2023/11/23 02:10:46;;;;;;;;;;;;;;;10.10;100.00;99827.69;4992880;28;19918;-73
2023/11/23 02:13:12;;;;;;;;;;;;;;;10.13;100.00;99838.22;4992769;28;19977;-73
2023/11/23 02:15:37;;;;;;;;;;;;;;;10.05;100.00;99836.25;4992862;28;20373;-73
2023/11/23 02:18:03;;;;;;;;;;;;;;;10.13;100.00;99849.41;4991812;28;19925;-72
2023/11/23 02:20:29;;;;;;;;;;;;;;;10.13;100.00;99841.03;4992684;28;19914;-72
2023/11/23 02:22:55;;;;;;;;;;;;;;;10.06;100.00;99843.47;4987765;28;19925;-73
2023/11/23 02:25:20;;;;;;;;;;;;;;;9.96;100.00;99845.41;4977447;28;19918;-72
2023/11/23 02:27:47;;;;;;;;;;;;;;;10.06;100.00;99849.88;4992610;28;20401;-72
2023/11/23 02:30:13;;;;;;;;;;;;;;;10.10;100.00;99844.47;4991213;28;19921;-72
2023/11/23 02:32:38;;;;;;;;;;;;;;;10.03;100.00;99855.31;4991691;28;19922;-73
2023/11/23 02:35:04;;;;;;;;;;;;;;;9.87;100.00;99846.53;4992474;28;19929;-73
2023/11/23 02:37:29;;;;;;;;;;;;;;;9.92;100.00;99851.94;4991082;28;19917;-73
2023/11/23 02:39:54;;;;;;;;;;;;;;;9.81;100.00;99857.00;4990286;28;19914;-72
2023/11/23 02:42:19;;;;;;;;;;;;;;;9.91;100.00;99859.53;4973015;28;20005;-72
2023/11/23 02:44:45;;;;;;;;;;;;;;;9.88;100.00;99859.34;4972164;28;19988;-72
2023/11/23 02:47:10;;;;;;;;;;;;;;;9.85;100.00;99866.38;4991701;28;19924;-73
2023/11/23 02:49:36;;;;;;;;;;;;;;;9.79;100.00;99871.28;4992159;28;19988;-73
2023/11/23 02:52:01;;;;;;;;;;;;;;;9.76;100.00;99869.13;4991427;28;20001;-73
2023/11/23 02:54:26;;;;;;;;;;;;;;;9.74;100.00;99881.75;4992197;28;19921;-73
2023/11/23 02:56:52;;;;;;;;;;;;;;;9.73;100.00;99886.53;4989617;28;19926;-72
2023/11/23 02:59:17;;;;;;;;;;;;;;;9.70;100.00;99887.16;4992280;28;19977;-72
2023/11/23 03:01:42;;;;;;;;;;;;;;;9.71;100.00;99888.00;4991483;28;19914;-72
2023/11/23 03:04:08;;;;;;;;;;;;;;;9.73;100.00;99891.28;4992067;28;19924;-73
2023/11/23 03:06:33;;;;;;;;;;;;;;;9.80;100.00;99883.28;4990988;28;19922;-72
2023/11/23 03:08:59;;;;;;;;;;;;;;;9.80;100.00;99886.09;4992401;28;19913;-73
2023/11/23 03:11:25;;;;;;;;;;;;;;;9.74;100.00;99881.75;4992163;28;20000;-73
2023/11/23 03:13:51;;;;;;;;;;;;;;;9.77;100.00;99881.13;4978527;28;19922;-72
2023/11/23 03:16:17;;;;;;;;;;;;;;;9.74;100.00;99895.72;4983364;28;20271;-73
2023/11/23 03:18:42;;;;;;;;;;;;;;;9.74;100.00;99898.53;4991479;28;19961;-72
2023/11/23 03:21:09;;;;;;;;;;;;;;;9.74;100.00;99906.91;4991969;28;19920;-72
2023/11/23 03:23:34;;;;;;;;;;;;;;;9.73;100.00;99908.91;4990673;28;19922;-73
2023/11/23 03:26:00;;;;;;;;;;;;;;;9.77;100.00;99915.47;4991816;28;20302;-73
2023/11/23 03:28:25;;;;;;;;;;;;;;;9.74;100.00;99901.31;4992025;28;20012;-73
2023/11/23 03:30:51;;;;;;;;;;;;;;;9.66;100.00;99914.94;4987723;28;19918;-72
2023/11/23 03:33:16;;;;;;;;;;;;;;;9.67;100.00;99905.41;4990748;28;19929;-73
2023/11/23 03:35:41;;;;;;;;;;;;;;;9.63;100.00;99923.94;4990586;28;20025;-72
2023/11/23 03:38:07;;;;;;;;;;;;;;;9.67;100.00;99922.16;4990060;28;19918;-72
2023/11/23 03:40:33;;;;;;;;;;;;;;;9.65;100.00;99929.19;4991849;28;20400;-72
2023/11/23 03:42:58;;;;;;;;;;;;;;;9.59;100.00;99927.66;4991838;28;20016;-72
2023/11/23 03:45:24;;;;;;;;;;;;;;;9.61;100.00;99940.19;4990306;28;19922;-72
2023/11/23 03:47:49;;;;;;;;;;;;;;;9.58;100.00;99928.81;4990749;28;20301;-73
2023/11/23 03:50:15;;;;;;;;;;;;;;;9.60;100.00;99935.75;4990892;28;19924;-73
2023/11/23 03:52:40;;;;;;;;;;;;;;;9.60;100.00;99938.53;4991777;28;19918;-72
2023/11/23 03:55:06;;;;;;;;;;;;;;;9.57;100.00;99932.75;4991550;28;19921;-72
2023/11/23 03:57:31;;;;;;;;;;;;;;;9.71;100.00;99939.09;4991923;28;19924;-73
2023/11/23 03:59:57;;;;;;;;;;;;;;;9.62;100.00;99941.81;4991422;28;20411;-73
2023/11/23 04:02:22;;;;;;;;;;;;;;;9.59;100.00;99948.06;4991775;28;19929;-73
2023/11/23 04:04:47;;;;;;;;;;;;;;;9.62;100.00;99952.19;4992143;28;19921;-73
2023/11/23 04:07:13;;;;;;;;;;;;;;;9.60;100.00;99966.47;4993058;28;19932;-72
2023/11/23 04:09:38;;;;;;;;;;;;;;;9.53;100.00;99963.28;4978423;28;19914;-73
2023/11/23 04:12:04;;;;;;;;;;;;;;;9.50;100.00;99969.50;4975575;28;19960;-72
2023/11/23 04:14:30;;;;;;;;;;;;;;;9.53;100.00;99971.66;4975530;28;19948;-72
2023/11/23 04:16:56;;;;;;;;;;;;;;;9.55;100.00;99977.75;4994198;28;20375;-72
2023/11/23 04:19:22;;;;;;;;;;;;;;;9.53;100.00;99982.81;4995119;28;19933;-73
2023/11/23 04:21:48;;;;;;;;;;;;;;;9.48;100.00;99977.38;4991316;28;20420;-73
2023/11/23 04:24:13;;;;;;;;;;;;;;;9.50;100.00;99977.88;4994883;28;20297;-72
2023/11/23 04:26:40;;;;;;;;;;;;;;;9.47;100.00;99981.31;4993239;28;19921;-72
2023/11/23 04:29:06;;;;;;;;;;;;;;;9.44;100.00;99981.94;4993815;28;19976;-73
2023/11/23 04:31:31;;;;;;;;;;;;;;;9.57;100.00;99983.00;4993132;28;20348;-72
2023/11/23 04:33:56;;;;;;;;;;;;;;;9.30;100.00;99977.22;4994663;28;19969;-72
2023/11/23 04:36:22;;;;;;;;;;;;;;;9.32;100.00;99980.53;4993831;28;20000;-72
2023/11/23 04:38:47;;;;;;;;;;;;;;;9.30;100.00;99979.16;4976253;28;19925;-73
2023/11/23 04:41:13;;;;;;;;;;;;;;;9.27;100.00;99989.84;4973905;28;20383;-72
2023/11/23 04:43:38;;;;;;;;;;;;;;;9.18;100.00;99983.34;4975120;28;20006;-72
2023/11/23 04:46:03;;;;;;;;;;;;;;;9.23;100.00;99996.34;4976968;28;19922;-72
2023/11/23 04:48:28;;;;;;;;;;;;;;;9.21;100.00;99987.47;4994268;28;19917;-73
2023/11/23 04:50:54;;;;;;;;;;;;;;;9.25;100.00;99994.91;4993615;28;20004;-73
2023/11/23 04:53:19;;;;;;;;;;;;;;;9.21;100.00;99990.25;4983072;28;20407;-73
2023/11/23 04:55:46;;;;;;;;;;;;;;;9.21;100.00;99993.06;4981994;28;19948;-72
2023/11/23 04:58:11;;;;;;;;;;;;;;;9.27;100.00;100001.00;4994425;28;20029;-73
2023/11/23 05:00:37;;;;;;;;;;;;;;;9.29;100.00;100003.50;4994100;28;19949;-73
2023/11/23 05:03:02;;;;;;;;;;;;;;;9.25;100.00;100000.50;4994032;28;19914;-73
2023/11/23 05:05:27;;;;;;;;;;;;;;;9.10;100.00;100007.22;4993302;28;19925;-73
2023/11/23 05:07:53;;;;;;;;;;;;;;;9.15;100.00;100011.03;4990302;28;19918;-73
2023/11/23 05:10:19;;;;;;;;;;;;;;;9.15;100.00;100008.25;4973404;28;19925;-72
2023/11/23 05:12:44;;;;;;;;;;;;;;;9.10;100.00;99998.00;4974402;28;20389;-72
2023/11/23 05:15:10;;;;;;;;;;;;;;;9.12;100.00;99998.56;4972361;28;19921;-72
2023/11/23 05:17:35;;;;;;;;;;;;;;;9.09;100.00;99997.22;4976854;28;19937;-72
2023/11/23 05:20:00;;;;;;;;;;;;;;;9.02;100.00;99994.00;4993384;28;19988;-73
2023/11/23 05:22:26;;;;;;;;;;;;;;;9.07;100.00;100004.22;4993457;28;19918;-73
2023/11/23 05:24:51;;;;;;;;;;;;;;;9.06;100.00;100003.41;5006878;28;19921;-73
2023/11/23 05:27:16;;;;;;;;;;;;;;;8.99;100.00;100009.41;4993421;28;19976;-73
2023/11/23 05:29:42;;;;;;;;;;;;;;;9.12;100.00;100006.94;4992429;28;19921;-73
2023/11/23 05:32:07;;;;;;;;;;;;;;;9.01;100.00;100011.06;4980184;28;19977;-73
2023/11/23 05:34:32;;;;;;;;;;;;;;;8.97;100.00;100010.84;4986791;28;19975;-73
2023/11/23 05:36:58;;;;;;;;;;;;;;;8.89;100.00;100033.91;4985674;28;20297;-72
2023/11/23 05:39:23;;;;;;;;;;;;;;;8.82;100.00;100025.94;4992661;28;20389;-72
2023/11/23 05:41:48;;;;;;;;;;;;;;;8.83;100.00;100025.66;4989585;28;20456;-72
2023/11/23 05:44:13;;;;;;;;;;;;;;;8.85;100.00;100034.53;4991341;28;19972;-72
2023/11/23 05:46:39;;;;;;;;;;;;;;;8.90;100.00;100030.81;4990819;28;19932;-73
2023/11/23 05:49:05;;;;;;;;;;;;;;;8.84;100.00;100034.81;4991620;28;20039;-72
2023/11/23 05:51:30;;;;;;;;;;;;;;;8.87;100.00;100027.81;4991239;28;20471;-73
2023/11/23 05:53:56;;;;;;;;;;;;;;;8.77;100.00;100029.66;4991749;28;19922;-72
2023/11/23 05:56:22;;;;;;;;;;;;;;;8.77;100.00;100037.22;4990826;28;19924;-69
2023/11/23 05:58:47;;;;;;;;;;;;;;;8.74;100.00;100041.44;4987723;28;19956;-69
2023/11/23 06:01:12;;;;;;;;;;;;;;;8.74;100.00;100048.97;4991333;28;19957;-70
2023/11/23 06:03:37;;;;;;;;;;;;;;;8.73;100.00;100062.09;4985868;28;20016;-70
2023/11/23 06:06:03;;;;;;;;;;;;;;;8.79;100.00;100066.44;4976929;28;19918;-68
2023/11/23 06:08:28;;;;;;;;;;;;;;;8.74;100.00;100074.91;4990590;28;19988;-69
2023/11/23 06:10:54;;;;;;;;;;;;;;;8.75;100.00;100070.13;4990495;28;19924;-68
2023/11/23 06:13:19;;;;;;;;;;;;;;;8.79;100.00;100068.41;4986703;28;19928;-68
2023/11/23 06:15:44;;;;;;;;;;;;;;;8.81;100.00;100061.41;4990118;28;19918;-68
2023/11/23 06:18:10;;;;;;;;;;;;;;;8.78;100.00;100070.34;4989530;28;19918;-69
2023/11/23 06:20:35;;;;;;;;;;;;;;;8.88;100.00;100065.72;4989432;28;19917;-69
2023/11/23 06:23:00;;;;;;;;;;;;;;;8.83;100.00;100061.91;4990031;28;19922;-68
2023/11/23 06:25:26;;;;;;;;;;;;;;;8.83;100.00;100066.66;4988759;28;20424;-69
2023/11/23 06:27:51;;;;;;;;;;;;;;;8.91;100.00;100070.69;4988224;28;19920;-69
2023/11/23 06:30:17;;;;;;;;;;;;;;;8.99;100.00;100069.97;4974449;28;20450;-68
2023/11/23 06:32:43;;;;;;;;;;;;;;;8.87;100.00;100078.03;4969377;28;19973;-69
2023/11/23 06:35:09;;;;;;;;;;;;;;;8.90;100.00;100077.41;4987208;28;19926;-71
2023/11/23 06:37:34;;;;;;;;;;;;;;;8.85;100.00;100084.75;4987713;28;19922;-71
2023/11/23 06:39:59;;;;;;;;;;;;;;;8.86;100.00;100082.75;4988600;28;19922;-69
2023/11/23 06:42:24;;;;;;;;;;;;;;;8.89;100.00;100081.31;4989685;28;19925;-68
2023/11/23 06:44:52;;;;;;;;;;;;;;;8.90;100.00;100088.56;4989597;28;19914;-68
2023/11/23 06:47:17;;;;;;;;;;;;;;;8.85;100.00;100098.69;4987647;28;19929;-68
2023/11/23 06:49:42;;;;;;;;;;;;;;;8.86;100.00;100088.34;4988550;28;20377;-70
2023/11/23 06:52:08;;;;;;;;;;;;;;;8.92;100.00;100086.28;4985407;28;19926;-68
2023/11/23 06:54:33;;;;;;;;;;;;;;;8.98;100.00;100088.66;4985264;28;19922;-68
2023/11/23 06:56:58;;;;;;;;;;;;;;;8.94;100.00;100090.41;4988803;28;19926;-68
2023/11/23 06:59:24;;;;;;;;;;;;;;;9.01;100.00;100094.78;4988230;28;19918;-68
2023/11/23 07:01:49;;;;;;;;;;;;;;;9.03;100.00;100104.47;4988559;28;20278;-68
2023/11/23 07:04:14;;;;;;;;;;;;;;;9.05;100.00;100102.22;4988349;28;19926;-68
2023/11/23 07:06:40;;;;;;;;;;;;;;;9.00;100.00;100105.09;4990166;28;20380;-68
2023/11/23 07:09:06;;;;;;;;;;;;;;;8.94;100.00;100096.00;4990347;28;19917;-68
2023/11/23 07:11:31;;;;;;;;;;;;;;;8.91;100.00;100102.22;4989900;28;19922;-68
2023/11/23 07:13:57;;;;;;;;;;;;;;;8.92;100.00;100098.28;4990056;28;19932;-68
2023/11/23 07:16:22;;;;;;;;;;;;;;;8.80;100.00;100093.19;4989093;28;20442;-68
2023/11/23 07:18:47;;;;;;;;;;;;;;;8.82;100.00;100090.94;4988896;28;19944;-68
2023/11/23 07:21:14;;;;;;;;;;;;;;;8.82;100.00;100090.94;4990538;28;20254;-68
2023/11/23 07:23:40;;;;;;;;;;;;;;;8.88;100.00;100086.09;4990064;28;19925;-68
2023/11/23 07:26:05;;;;;;;;;;;;;;;8.87;100.00;100087.22;4990535;28;19913;-68
2023/11/23 07:28:31;;;;;;;;;;;;;;;8.85;100.00;100081.94;4988005;28;20286;-69
2023/11/23 07:30:57;;;;;;;;;;;;;;;8.87;100.00;100090.03;4987713;28;19926;-68
2023/11/23 07:33:24;;;;;;;;;;;;;;;8.80;100.00;100097.94;4988095;28;20377;-68
2023/11/23 07:35:51;;;;;;;;;;;;;;;8.76;100.00;100092.16;4988082;28;20316;-68
2023/11/23 07:38:16;;;;;;;;;;;;;;;8.84;100.00;100085.88;4989532;28;19930;-68
2023/11/23 07:40:41;;;;;;;;;;;;;;;8.84;100.00;100096.19;4992360;28;19917;-68
2023/11/23 07:43:08;;;;;;;;;;;;;;;8.91;100.00;100102.22;4993240;28;19917;-68
2023/11/23 07:45:34;;;;;;;;;;;;;;;8.83;100.00;100109.34;4991298;28;19960;-68
2023/11/23 07:47:59;;;;;;;;;;;;;;;8.82;100.00;100106.84;4993742;28;19918;-68
2023/11/23 07:50:25;;;;;;;;;;;;;;;8.77;100.00;100106.94;4991372;28;19918;-69
2023/11/23 07:52:50;;;;;;;;;;;;;;;8.79;100.00;100108.28;4993776;28;19929;-68
2023/11/23 07:55:15;;;;;;;;;;;;;;;8.80;100.00;100112.72;4992936;28;19952;-68
2023/11/23 07:57:47;;;;;;;;;;;;;;;8.84;100.00;100116.56;4993871;28;19953;-70
2023/11/23 08:00:13;;;;;;;;;;;;;;;8.85;100.00;100123.78;4993918;28;19918;-68
2023/11/23 08:02:38;;;;;;;;;;;;;;;8.90;100.00;100119.25;4992594;28;19925;-69
2023/11/23 08:05:04;;;;;;;;;;;;;;;8.91;100.00;100120.91;4994353;28;20029;-68
2023/11/23 08:07:30;;;;;;;;;;;;;;;9.01;100.00;100122.69;4986776;28;20309;-74
2023/11/23 08:09:57;;;;;;;;;;;;;;;8.97;100.00;100128.84;4991068;28;19918;-74
2023/11/23 08:12:23;;;;;;;;;;;;;;;9.01;100.00;100126.28;4993029;28;19914;-74
2023/11/23 08:14:48;;;;;;;;;;;;;;;8.93;100.00;100127.00;4987492;28;19929;-74
2023/11/23 08:17:13;;;;;;;;;;;;;;;8.89;100.00;100124.00;4992121;28;20352;-74
2023/11/23 08:19:39;;;;;;;;;;;;;;;8.80;100.00;100126.66;4992675;28;19918;-74
2023/11/23 08:22:07;;;;;;;;;;;;;;;8.77;100.00;100113.34;4993045;28;20286;-74
2023/11/23 08:24:33;;;;;;;;;;;;;;;8.77;100.00;100121.69;4989948;28;19918;-74
2023/11/23 08:26:58;;;;;;;;;;;;;;;8.76;100.00;100105.28;4990635;28;19922;-75
2023/11/23 08:29:24;;;;;;;;;;;;;;;8.85;100.00;100117.38;4992948;28;20016;-74
2023/11/23 08:31:51;;;;;;;;;;;;;;;8.79;100.00;100113.84;4991120;28;19918;-75
2023/11/23 08:34:16;;;;;;;;;;;;;;;8.72;100.00;100110.66;4991308;28;19922;-75
2023/11/23 08:36:41;;;;;;;;;;;;;;;8.76;100.00;100114.47;4993042;28;19930;-75
2023/11/23 08:39:07;;;;;;;;;;;;;;;8.81;100.00;100111.59;4991392;28;20000;-75
2023/11/23 08:41:32;;;;;;;;;;;;;;;8.89;100.00;100117.59;4989959;28;19976;-73
2023/11/23 08:43:58;;;;;;;;;;;;;;;8.91;100.00;100118.09;4993016;28;20004;-74
2023/11/23 08:46:24;;;;;;;;;;;;;;;8.82;100.00;100116.03;4993386;28;19929;-74
2023/11/23 08:48:49;;;;;;;;;;;;;;;8.80;100.00;100111.91;4992463;28;19928;-74
2023/11/23 08:51:15;;;;;;;;;;;;;;;8.87;100.00;100108.72;4986045;28;19932;-74
2023/11/23 08:53:40;;;;;;;;;;;;;;;8.78;100.00;100103.81;4987483;28;19928;-73
2023/11/23 08:56:06;;;;;;;;;;;;;;;8.84;100.00;100097.03;4989396;28;20012;-74
2023/11/23 08:58:31;;;;;;;;;;;;;;;8.88;100.00;100102.00;4991406;28;19921;-73
2023/11/23 09:00:56;;;;;;;;;;;;;;;9.00;100.00;100093.94;4990777;28;19922;-74
2023/11/23 09:03:22;;;;;;;;;;;;;;;8.96;100.00;100092.91;4989951;28;19997;-74
2023/11/23 09:05:47;;;;;;;;;;;;;;;8.99;100.00;100095.06;4994762;28;20316;-72
2023/11/23 09:08:13;;;;;;;;;;;;;;;8.97;100.00;100095.38;4985528;28;20001;-72
2023/11/23 09:10:39;;;;;;;;;;;;;;;8.96;100.00;100095.69;4986758;28;19957;-70
2023/11/23 09:13:05;;;;;;;;;;;;;;;8.94;100.00;100089.59;4990295;28;19969;-69
2023/11/23 09:15:30;;;;;;;;;;;;;;;9.04;100.00;100088.56;4989967;28;19960;-72
2023/11/23 09:17:56;;;;;;;;;;;;;;;8.98;100.00;100096.22;4990984;28;20376;-72
2023/11/23 09:20:21;;;;;;;;;;;;;;;9.02;100.00;100094.44;4986707;28;19918;-72
2023/11/23 09:22:46;;;;;;;;;;;;;;;9.13;100.00;100092.31;4986280;28;19933;-73
2023/11/23 09:25:13;;;;;;;;;;;;;;;9.15;100.00;100094.75;4986451;28;19969;-73
2023/11/23 09:27:39;;;;;;;;;;;;;;;9.10;100.00;100093.75;4986223;28;19985;-72
2023/11/23 09:30:06;;;;;;;;;;;;;;;9.19;100.00;100090.22;4987100;28;19937;-73
2023/11/23 09:32:32;;;;;;;;;;;;;;;9.18;100.00;100086.59;4986603;28;20388;-73
2023/11/23 09:34:57;;;;;;;;;;;;;;;9.17;100.00;100079.38;4979773;28;20024;-72
2023/11/23 09:37:22;;;;;;;;;;;;;;;9.16;100.00;100082.47;4989385;28;19926;-71
2023/11/23 09:39:49;;;;;;;;;;;;;;;9.16;100.00;100082.47;4987620;28;19995;-72
2023/11/23 09:42:16;;;;;;;;;;;;;;;9.18;100.00;100085.78;4988485;28;19918;-71
2023/11/23 09:44:42;;;;;;;;;;;;;;;9.10;100.00;100079.78;4988172;28;19993;-68
2023/11/23 09:47:08;;;;;;;;;;;;;;;9.06;100.00;100081.56;4984451;28;19921;-70
2023/11/23 09:49:35;;;;;;;;;;;;;;;9.17;100.00;100078.53;4983143;28;19928;-70
2023/11/23 09:52:01;;;;;;;;;;;;;;;9.07;100.00;100087.94;4982485;28;20024;-71
2023/11/23 09:54:28;;;;;;;;;;;;;;;9.08;100.00;100070.91;4988545;28;19922;-70
2023/11/23 09:56:53;;;;;;;;;;;;;;;9.09;100.00;100078.13;4987022;28;19922;-71
2023/11/23 09:59:19;;;;;;;;;;;;;;;9.11;100.00;100080.59;4985138;28;19921;-71
2023/11/23 10:01:47;;;;;;;;;;;;;;;9.12;100.00;100073.91;4984973;28;19928;-70
2023/11/23 10:04:13;;;;;;;;;;;;;;;9.07;100.00;100076.78;4983160;28;19929;-70
2023/11/23 10:06:38;;;;;;;;;;;;;;;8.90;100.00;100078.22;4985360;28;20265;-70
2023/11/23 10:09:06;;;;;;;;;;;;;;;8.88;100.00;100074.09;4981994;28;19929;-73
2023/11/23 10:11:31;;;;;;;;;;;;;;;8.86;100.00;100071.59;4987317;28;20012;-71
2023/11/23 10:13:57;;;;;;;;;;;;;;;8.92;100.00;100063.97;4986058;28;20028;-72
2023/11/23 10:16:22;;;;;;;;;;;;;;;8.90;100.00;100058.72;4985439;28;19972;-71
2023/11/23 10:18:47;;;;;;;;;;;;;;;8.88;100.00;100060.97;4985364;28;20307;-70
2023/11/23 10:21:13;;;;;;;;;;;;;;;8.85;100.00;100056.84;4986036;28;19925;-71
2023/11/23 10:23:43;;;;;;;;;;;;;;;8.85;100.00;100059.63;4983627;28;20300;-70
2023/11/23 10:26:09;;;;;;;;;;;;;;;8.96;100.00;100053.84;4982528;28;20499;-70
2023/11/23 10:28:35;;;;;;;;;;;;;;;9.04;100.00;100044.72;4985109;28;20015;-71
2023/11/23 10:31:04;;;;;;;;;;;;;;;8.98;100.00;100034.84;4986265;28;20032;-70
2023/11/23 10:33:31;;;;;;;;;;;;;;;9.03;100.00;100031.09;4987057;28;19953;-70
2023/11/23 10:35:56;;;;;;;;;;;;;;;9.07;100.00;100035.75;4987826;28;19918;-72
2023/11/23 10:38:22;;;;;;;;;;;;;;;9.03;100.00;100031.91;4988624;28;19972;-71
2023/11/23 10:40:47;;;;;;;;;;;;;;;9.00;100.00;100029.75;4977814;28;19926;-75
2023/11/23 10:43:13;;;;;;;;;;;;;;;9.09;100.00;100038.22;4980627;28;19928;-71
2023/11/23 10:45:40;;;;;;;;;;;;;;;9.11;100.00;100028.41;4981571;28;20400;-71
2023/11/23 10:48:05;;;;;;;;;;;;;;;9.15;100.00;100031.41;4982156;28;19922;-70
2023/11/23 10:50:31;;;;;;;;;;;;;;;9.17;100.00;100022.72;4981838;28;19988;-69
2023/11/23 10:52:57;;;;;;;;;;;;;;;9.20;100.00;100019.31;4986236;28;19929;-70
2023/11/23 10:55:23;;;;;;;;;;;;;;;9.16;100.00;100019.09;4987421;28;19922;-70
2023/11/23 10:57:57;;;;;;;;;;;;;;;9.30;100.00;100010.72;4983752;28;20451;-69
2023/11/23 11:00:25;;;;;;;;;;;;;;;9.24;100.00;100009.16;4983687;28;19918;-69
2023/11/23 11:02:51;;;;;;;;;;;;;;;9.17;100.00;100003.16;4985140;28;19921;-70
2023/11/23 11:05:23;;;;;;;;;;;;;;;9.25;100.00;100010.81;4987872;28;19972;-70
2023/11/23 11:07:53;;;;;;;;;;;;;;;9.22;100.00;100000.28;4982056;28;19925;-71
2023/11/23 11:10:19;;;;;;;;;;;;;;;9.11;100.00;100000.50;4981447;28;19918;-71
2023/11/23 11:12:46;;;;;;;;;;;;;;;9.11;100.00;100000.50;4985836;28;19918;-71
2023/11/23 11:15:15;;;;;;;;;;;;;;;9.12;100.00;99996.56;4992687;28;19925;-71
2023/11/23 11:17:40;;;;;;;;;;;;;;;9.09;100.00;99997.22;4988703;28;19984;-71
2023/11/23 11:20:09;;;;;;;;;;;;;;;9.10;100.00;99981.28;4984132;28;20394;-71
2023/11/23 11:22:35;;;;;;;;;;;;;;;9.16;100.00;99981.97;4993255;28;20000;-71
2023/11/23 11:25:00;;;;;;;;;;;;;;;9.21;100.00;99973.50;4985754;28;20013;-71
2023/11/23 11:27:30;;;;;;;;;;;;;;;9.18;100.00;99977.75;4992177;28;19922;-71
2023/11/23 11:29:57;;;;;;;;;;;;;;;9.16;100.00;99973.63;4993615;28;20396;-70
2023/11/23 11:32:23;;;;;;;;;;;;;;;9.11;100.00;99972.59;4994910;28;19957;-72
2023/11/23 11:34:58;;;;;;;;;;;;;;;9.13;100.00;99975.09;4994038;28;20373;-73
2023/11/23 11:37:24;;;;;;;;;;;;;;;9.15;100.00;99966.38;4984459;28;19930;-72
2023/11/23 11:39:50;;;;;;;;;;;;;;;9.15;100.00;99958.84;4990643;28;20454;-72
2023/11/23 11:42:16;;;;;;;;;;;;;;;9.12;100.00;99953.91;4991829;28;20480;-72
2023/11/23 11:44:45;;;;;;;;;;;;;;;9.07;100.00;99935.31;4980992;28;19918;-72
2023/11/23 11:47:10;;;;;;;;;;;;;;;9.07;100.00;99942.84;4986860;28;19929;-73
2023/11/23 11:49:36;;;;;;;;;;;;;;;9.02;100.00;99943.78;4989501;28;20320;-72
2023/11/23 11:52:02;;;;;;;;;;;;;;;9.05;100.00;99931.16;4989627;28;20290;-72
2023/11/23 11:54:28;;;;;;;;;;;;;;;9.04;100.00;99935.09;4989995;28;20186;-72
2023/11/23 11:56:53;;;;;;;;;;;;;;;9.11;100.00;99935.47;4991504;28;19918;-72
2023/11/23 11:59:20;;;;;;;;;;;;;;;9.10;100.00;99934.66;4990039;28;20032;-72
2023/11/23 12:01:46;;;;;;;;;;;;;;;9.04;100.00;99927.53;4988865;28;19922;-73
2023/11/23 12:04:21;;;;;;;;;;;;;;;9.18;100.00;99926.69;4979520;28;19922;-72
2023/11/23 12:06:50;;;;;;;;;;;;;;;9.13;100.00;99917.28;4990621;28;19933;-73
2023/11/23 12:09:19;;;;;;;;;;;;;;;9.12;100.00;99912.84;4990730;28;20459;-72
2023/11/23 12:11:48;;;;;;;;;;;;;;;9.11;100.00;99902.81;4984363;28;20503;-70
2023/11/23 12:14:13;;;;;;;;;;;;;;;9.12;100.00;99914.81;4988321;28;19926;-73
2023/11/23 12:16:39;;;;;;;;;;;;;;;9.12;100.00;99904.47;4988652;28;19922;-71
2023/11/23 12:19:17;;;;;;;;;;;;;;;9.32;100.00;99904.31;4985584;28;19928;-73
2023/11/23 12:21:42;;;;;;;;;;;;;;;9.39;100.00;99899.94;4990140;28;19928;-71
2023/11/23 12:24:08;;;;;;;;;;;;;;;9.33;100.00;99895.63;4987637;28;19922;-72
2023/11/23 12:26:33;;;;;;;;;;;;;;;9.44;100.00;99898.97;4989111;28;19997;-74
2023/11/23 12:28:58;;;;;;;;;;;;;;;9.38;100.00;99898.28;4991266;28;20339;-72
2023/11/23 12:31:24;;;;;;;;;;;;;;;9.39;100.00;99897.13;4989915;28;19975;-71
2023/11/23 12:33:49;;;;;;;;;;;;;;;9.21;100.00;99893.38;4985848;28;19929;-72